sensor_id;sensor_type;location;lat;lon;timestamp;temperature;humidity
4052;DHT22;2040;50.924;11.604;2024-03-08T00:01:39;-1.30;99.90
4052;DHT22;2040;50.924;11.604;2024-03-08T00:04:06;-1.40;99.90
4052;DHT22;2040;50.924;11.604;2024-03-08T00:06:32;-1.40;99.90
4052;DHT22;2040;50.924;11.604;2024-03-08T00:08:57;-1.40;99.90
4052;DHT22;2040;50.924;11.604;2024-03-08T00:11:23;-1.40;99.90
4052;DHT22;2040;50.924;11.604;2024-03-08T00:13:51;-1.40;99.90
4052;DHT22;2040;50.924;11.604;2024-03-08T00:16:17;-1.40;99.90
4052;DHT22;2040;50.924;11.604;2024-03-08T00:18:45;-1.40;99.90
4052;DHT22;2040;50.924;11.604;2024-03-08T00:21:10;-1.40;99.90
4052;DHT22;2040;50.924;11.604;2024-03-08T00:23:37;-1.40;99.90
4052;DHT22;2040;50.924;11.604;2024-03-08T00:26:03;-1.40;99.90
4052;DHT22;2040;50.924;11.604;2024-03-08T00:28:29;-1.40;99.90
4052;DHT22;2040;50.924;11.604;2024-03-08T00:30:56;-1.40;99.90
4052;DHT22;2040;50.924;11.604;2024-03-08T00:33:21;-1.40;99.90
4052;DHT22;2040;50.924;11.604;2024-03-08T00:35:47;-1.50;99.90
4052;DHT22;2040;50.924;11.604;2024-03-08T00:38:13;-1.50;99.90
4052;DHT22;2040;50.924;11.604;2024-03-08T00:40:38;-1.50;99.90
4052;DHT22;2040;50.924;11.604;2024-03-08T00:43:05;-1.50;99.90
4052;DHT22;2040;50.924;11.604;2024-03-08T00:45:31;-1.60;99.90
4052;DHT22;2040;50.924;11.604;2024-03-08T00:47:57;-1.60;99.90
4052;DHT22;2040;50.924;11.604;2024-03-08T00:50:22;-1.70;99.90
4052;DHT22;2040;50.924;11.604;2024-03-08T00:52:48;-1.70;99.90
4052;DHT22;2040;50.924;11.604;2024-03-08T00:55:13;-1.70;99.90
4052;DHT22;2040;50.924;11.604;2024-03-08T00:57:39;-1.70;99.90
4052;DHT22;2040;50.924;11.604;2024-03-08T01:00:06;-1.70;99.90
4052;DHT22;2040;50.924;11.604;2024-03-08T01:02:40;-1.70;99.90
4052;DHT22;2040;50.924;11.604;2024-03-08T01:05:06;-1.70;99.90
4052;DHT22;2040;50.924;11.604;2024-03-08T01:07:36;-1.70;99.90
4052;DHT22;2040;50.924;11.604;2024-03-08T01:10:05;-1.60;99.90
4052;DHT22;2040;50.924;11.604;2024-03-08T01:12:35;-1.60;99.90
4052;DHT22;2040;50.924;11.604;2024-03-08T01:15:00;-1.60;99.90
4052;DHT22;2040;50.924;11.604;2024-03-08T01:17:26;-1.60;99.90
4052;DHT22;2040;50.924;11.604;2024-03-08T01:19:52;-1.70;99.90
4052;DHT22;2040;50.924;11.604;2024-03-08T01:22:19;-1.70;99.90
4052;DHT22;2040;50.924;11.604;2024-03-08T01:24:44;-1.70;99.90
4052;DHT22;2040;50.924;11.604;2024-03-08T01:27:10;-1.70;99.90
4052;DHT22;2040;50.924;11.604;2024-03-08T01:29:35;-1.70;99.90
4052;DHT22;2040;50.924;11.604;2024-03-08T01:32:01;-1.70;99.90
4052;DHT22;2040;50.924;11.604;2024-03-08T01:34:27;-1.70;99.90
4052;DHT22;2040;50.924;11.604;2024-03-08T01:36:54;-1.70;99.90
4052;DHT22;2040;50.924;11.604;2024-03-08T01:39:21;-1.80;99.90
4052;DHT22;2040;50.924;11.604;2024-03-08T01:41:47;-1.80;99.90
4052;DHT22;2040;50.924;11.604;2024-03-08T01:44:13;-1.90;99.90
4052;DHT22;2040;50.924;11.604;2024-03-08T01:46:52;-1.90;99.90
4052;DHT22;2040;50.924;11.604;2024-03-08T01:49:19;-2.00;99.90
4052;DHT22;2040;50.924;11.604;2024-03-08T01:51:48;-1.90;99.90
4052;DHT22;2040;50.924;11.604;2024-03-08T01:54:16;-2.00;99.90
4052;DHT22;2040;50.924;11.604;2024-03-08T01:56:42;-2.00;99.90
4052;DHT22;2040;50.924;11.604;2024-03-08T01:59:08;-2.10;99.90
4052;DHT22;2040;50.924;11.604;2024-03-08T02:01:34;-2.10;99.90
4052;DHT22;2040;50.924;11.604;2024-03-08T02:04:00;-2.10;99.90
4052;DHT22;2040;50.924;11.604;2024-03-08T02:06:25;-2.00;99.90
4052;DHT22;2040;50.924;11.604;2024-03-08T02:08:51;-2.10;99.90
4052;DHT22;2040;50.924;11.604;2024-03-08T02:11:17;-2.10;99.90
4052;DHT22;2040;50.924;11.604;2024-03-08T02:13:44;-2.10;99.90
4052;DHT22;2040;50.924;11.604;2024-03-08T02:16:09;-2.20;99.90
4052;DHT22;2040;50.924;11.604;2024-03-08T02:18:35;-2.20;99.90
4052;DHT22;2040;50.924;11.604;2024-03-08T02:21:03;-2.20;99.90
4052;DHT22;2040;50.924;11.604;2024-03-08T02:23:29;-2.20;99.90
4052;DHT22;2040;50.924;11.604;2024-03-08T02:25:56;-2.20;99.90
4052;DHT22;2040;50.924;11.604;2024-03-08T02:28:22;-2.20;99.90
4052;DHT22;2040;50.924;11.604;2024-03-08T02:30:48;-2.20;99.90
4052;DHT22;2040;50.924;11.604;2024-03-08T02:33:15;-2.20;99.90
4052;DHT22;2040;50.924;11.604;2024-03-08T02:35:47;-2.30;99.90
4052;DHT22;2040;50.924;11.604;2024-03-08T02:38:17;-2.30;99.90
4052;DHT22;2040;50.924;11.604;2024-03-08T02:40:44;-2.30;99.90
4052;DHT22;2040;50.924;11.604;2024-03-08T02:43:10;-2.30;99.90
4052;DHT22;2040;50.924;11.604;2024-03-08T02:45:36;-2.30;99.90
4052;DHT22;2040;50.924;11.604;2024-03-08T02:48:02;-2.30;99.90
4052;DHT22;2040;50.924;11.604;2024-03-08T02:50:28;-2.40;99.90
4052;DHT22;2040;50.924;11.604;2024-03-08T02:52:54;-2.40;99.90
4052;DHT22;2040;50.924;11.604;2024-03-08T02:55:19;-2.40;99.90
4052;DHT22;2040;50.924;11.604;2024-03-08T02:57:46;-2.40;99.90
4052;DHT22;2040;50.924;11.604;2024-03-08T03:00:13;-2.40;99.90
4052;DHT22;2040;50.924;11.604;2024-03-08T03:02:38;-2.40;99.90
4052;DHT22;2040;50.924;11.604;2024-03-08T03:08:26;-2.50;99.90
4052;DHT22;2040;50.924;11.604;2024-03-08T03:10:51;-2.50;99.90
4052;DHT22;2040;50.924;11.604;2024-03-08T03:13:17;-2.50;99.90
4052;DHT22;2040;50.924;11.604;2024-03-08T03:15:46;-2.60;99.90
4052;DHT22;2040;50.924;11.604;2024-03-08T03:18:11;-2.60;99.90
4052;DHT22;2040;50.924;11.604;2024-03-08T03:20:37;-2.60;99.90
4052;DHT22;2040;50.924;11.604;2024-03-08T03:23:06;-2.60;99.90
4052;DHT22;2040;50.924;11.604;2024-03-08T03:25:33;-2.60;99.90
4052;DHT22;2040;50.924;11.604;2024-03-08T03:28:03;-2.60;99.90
4052;DHT22;2040;50.924;11.604;2024-03-08T03:30:30;-2.60;99.90
4052;DHT22;2040;50.924;11.604;2024-03-08T03:33:01;-2.60;99.90
4052;DHT22;2040;50.924;11.604;2024-03-08T03:35:28;-2.50;99.90
4052;DHT22;2040;50.924;11.604;2024-03-08T03:37:54;-2.50;99.90
4052;DHT22;2040;50.924;11.604;2024-03-08T03:40:33;-2.60;99.90
4052;DHT22;2040;50.924;11.604;2024-03-08T03:42:59;-2.70;99.90
4052;DHT22;2040;50.924;11.604;2024-03-08T03:45:25;-2.70;99.90
4052;DHT22;2040;50.924;11.604;2024-03-08T03:47:51;-2.80;99.90
4052;DHT22;2040;50.924;11.604;2024-03-08T03:50:18;-2.80;99.90
4052;DHT22;2040;50.924;11.604;2024-03-08T03:52:48;-2.90;99.90
4052;DHT22;2040;50.924;11.604;2024-03-08T03:55:14;-2.90;99.90
4052;DHT22;2040;50.924;11.604;2024-03-08T03:57:40;-2.80;99.90
4052;DHT22;2040;50.924;11.604;2024-03-08T04:00:06;-2.90;99.90
4052;DHT22;2040;50.924;11.604;2024-03-08T04:02:38;-2.90;99.90
4052;DHT22;2040;50.924;11.604;2024-03-08T04:05:05;-2.90;99.90
4052;DHT22;2040;50.924;11.604;2024-03-08T04:07:31;-2.90;99.90
4052;DHT22;2040;50.924;11.604;2024-03-08T04:09:57;-2.90;99.90
4052;DHT22;2040;50.924;11.604;2024-03-08T04:12:22;-2.80;99.90
4052;DHT22;2040;50.924;11.604;2024-03-08T04:14:48;-2.80;99.90
4052;DHT22;2040;50.924;11.604;2024-03-08T04:17:15;-2.60;99.90
4052;DHT22;2040;50.924;11.604;2024-03-08T04:19:40;-2.60;99.90
4052;DHT22;2040;50.924;11.604;2024-03-08T04:22:06;-2.70;99.90
4052;DHT22;2040;50.924;11.604;2024-03-08T04:24:33;-2.90;99.90
4052;DHT22;2040;50.924;11.604;2024-03-08T04:26:58;-3.00;99.90
4052;DHT22;2040;50.924;11.604;2024-03-08T04:29:24;-3.00;99.90
4052;DHT22;2040;50.924;11.604;2024-03-08T04:31:50;-3.10;99.90
4052;DHT22;2040;50.924;11.604;2024-03-08T04:34:22;-3.10;99.90
4052;DHT22;2040;50.924;11.604;2024-03-08T04:36:48;-3.10;99.90
4052;DHT22;2040;50.924;11.604;2024-03-08T04:39:14;-3.10;99.90
4052;DHT22;2040;50.924;11.604;2024-03-08T04:41:41;-3.10;99.90
4052;DHT22;2040;50.924;11.604;2024-03-08T04:44:10;-3.10;99.90
4052;DHT22;2040;50.924;11.604;2024-03-08T04:46:36;-3.10;99.90
4052;DHT22;2040;50.924;11.604;2024-03-08T04:49:01;-3.10;99.90
4052;DHT22;2040;50.924;11.604;2024-03-08T04:51:27;-3.00;99.90
4052;DHT22;2040;50.924;11.604;2024-03-08T04:53:52;-2.90;99.90
4052;DHT22;2040;50.924;11.604;2024-03-08T04:56:18;-2.90;99.90
4052;DHT22;2040;50.924;11.604;2024-03-08T04:58:45;-2.90;99.90
4052;DHT22;2040;50.924;11.604;2024-03-08T05:01:12;-2.90;99.90
4052;DHT22;2040;50.924;11.604;2024-03-08T05:03:37;-3.00;99.90
4052;DHT22;2040;50.924;11.604;2024-03-08T05:06:04;-3.10;99.90
4052;DHT22;2040;50.924;11.604;2024-03-08T05:08:29;-3.20;99.90
4052;DHT22;2040;50.924;11.604;2024-03-08T05:10:55;-3.30;99.90
4052;DHT22;2040;50.924;11.604;2024-03-08T05:13:21;-3.40;99.90
4052;DHT22;2040;50.924;11.604;2024-03-08T05:15:49;-3.30;99.90
4052;DHT22;2040;50.924;11.604;2024-03-08T05:18:15;-3.30;99.90
4052;DHT22;2040;50.924;11.604;2024-03-08T05:20:41;-3.40;99.90
4052;DHT22;2040;50.924;11.604;2024-03-08T05:23:07;-3.40;99.90
4052;DHT22;2040;50.924;11.604;2024-03-08T05:25:33;-3.40;99.90
4052;DHT22;2040;50.924;11.604;2024-03-08T05:27:59;-3.50;99.90
4052;DHT22;2040;50.924;11.604;2024-03-08T05:30:24;-3.50;99.90
4052;DHT22;2040;50.924;11.604;2024-03-08T05:32:50;-3.50;99.90
4052;DHT22;2040;50.924;11.604;2024-03-08T05:35:15;-3.50;99.90
4052;DHT22;2040;50.924;11.604;2024-03-08T05:37:41;-3.50;99.90
4052;DHT22;2040;50.924;11.604;2024-03-08T05:40:08;-3.50;99.90
4052;DHT22;2040;50.924;11.604;2024-03-08T05:42:37;-3.40;99.90
4052;DHT22;2040;50.924;11.604;2024-03-08T05:45:06;-3.20;99.90
4052;DHT22;2040;50.924;11.604;2024-03-08T05:47:32;-3.10;99.90
4052;DHT22;2040;50.924;11.604;2024-03-08T05:50:00;-3.00;99.90
4052;DHT22;2040;50.924;11.604;2024-03-08T05:52:26;-3.00;99.90
4052;DHT22;2040;50.924;11.604;2024-03-08T05:54:52;-2.80;99.90
4052;DHT22;2040;50.924;11.604;2024-03-08T05:57:17;-2.60;99.90
4052;DHT22;2040;50.924;11.604;2024-03-08T05:59:43;-2.60;99.90
4052;DHT22;2040;50.924;11.604;2024-03-08T06:02:09;-2.80;99.90
4052;DHT22;2040;50.924;11.604;2024-03-08T06:04:34;-2.80;99.90
4052;DHT22;2040;50.924;11.604;2024-03-08T06:07:00;-2.70;99.90
4052;DHT22;2040;50.924;11.604;2024-03-08T06:09:25;-2.70;99.90
4052;DHT22;2040;50.924;11.604;2024-03-08T06:11:54;-2.90;99.90
4052;DHT22;2040;50.924;11.604;2024-03-08T06:14:20;-3.00;99.90
4052;DHT22;2040;50.924;11.604;2024-03-08T06:16:46;-3.10;99.90
4052;DHT22;2040;50.924;11.604;2024-03-08T06:19:12;-3.20;99.90
4052;DHT22;2040;50.924;11.604;2024-03-08T06:21:38;-3.20;99.90
4052;DHT22;2040;50.924;11.604;2024-03-08T06:24:04;-3.20;99.90
4052;DHT22;2040;50.924;11.604;2024-03-08T06:26:29;-3.20;99.90
4052;DHT22;2040;50.924;11.604;2024-03-08T06:28:55;-3.30;99.90
4052;DHT22;2040;50.924;11.604;2024-03-08T06:31:21;-3.30;99.90
4052;DHT22;2040;50.924;11.604;2024-03-08T06:33:47;-3.30;99.90
4052;DHT22;2040;50.924;11.604;2024-03-08T06:36:16;-3.20;99.90
4052;DHT22;2040;50.924;11.604;2024-03-08T06:38:50;-3.20;99.90
4052;DHT22;2040;50.924;11.604;2024-03-08T06:41:16;-3.20;99.90
4052;DHT22;2040;50.924;11.604;2024-03-08T06:43:43;-3.00;99.90
4052;DHT22;2040;50.924;11.604;2024-03-08T06:46:08;-2.90;99.90
4052;DHT22;2040;50.924;11.604;2024-03-08T06:48:35;-2.80;99.90
4052;DHT22;2040;50.924;11.604;2024-03-08T06:51:03;-2.80;99.90
4052;DHT22;2040;50.924;11.604;2024-03-08T06:53:28;-2.80;99.90
4052;DHT22;2040;50.924;11.604;2024-03-08T06:55:54;-2.80;99.90
4052;DHT22;2040;50.924;11.604;2024-03-08T06:58:20;-2.50;99.90
4052;DHT22;2040;50.924;11.604;2024-03-08T07:00:45;-2.50;99.90
4052;DHT22;2040;50.924;11.604;2024-03-08T07:03:12;-2.50;99.90
4052;DHT22;2040;50.924;11.604;2024-03-08T07:05:42;-2.40;99.90
4052;DHT22;2040;50.924;11.604;2024-03-08T07:08:08;-2.20;99.90
4052;DHT22;2040;50.924;11.604;2024-03-08T07:10:33;-2.20;99.90
4052;DHT22;2040;50.924;11.604;2024-03-08T07:13:00;-2.30;99.90
4052;DHT22;2040;50.924;11.604;2024-03-08T07:15:27;-2.30;99.90
4052;DHT22;2040;50.924;11.604;2024-03-08T07:17:54;-2.30;99.90
4052;DHT22;2040;50.924;11.604;2024-03-08T07:20:20;-2.30;99.90
4052;DHT22;2040;50.924;11.604;2024-03-08T07:22:46;-2.20;99.90
4052;DHT22;2040;50.924;11.604;2024-03-08T07:25:18;-2.20;99.90
4052;DHT22;2040;50.924;11.604;2024-03-08T07:27:51;-2.10;99.90
4052;DHT22;2040;50.924;11.604;2024-03-08T07:30:22;-2.00;99.90
4052;DHT22;2040;50.924;11.604;2024-03-08T07:33:06;-1.90;99.90
4052;DHT22;2040;50.924;11.604;2024-03-08T07:35:33;-1.90;99.90
4052;DHT22;2040;50.924;11.604;2024-03-08T07:38:03;-1.70;99.90
4052;DHT22;2040;50.924;11.604;2024-03-08T07:40:30;-1.70;99.90
4052;DHT22;2040;50.924;11.604;2024-03-08T07:42:55;-1.60;99.90
4052;DHT22;2040;50.924;11.604;2024-03-08T07:45:21;-1.40;99.90
4052;DHT22;2040;50.924;11.604;2024-03-08T07:47:47;-1.30;99.90
4052;DHT22;2040;50.924;11.604;2024-03-08T07:50:12;-1.30;99.90
4052;DHT22;2040;50.924;11.604;2024-03-08T07:52:41;-1.20;99.90
4052;DHT22;2040;50.924;11.604;2024-03-08T07:55:07;-1.00;99.90
4052;DHT22;2040;50.924;11.604;2024-03-08T07:57:33;-0.70;99.90
4052;DHT22;2040;50.924;11.604;2024-03-08T07:59:59;-0.50;99.90
4052;DHT22;2040;50.924;11.604;2024-03-08T08:02:24;-0.60;99.90
4052;DHT22;2040;50.924;11.604;2024-03-08T08:04:50;-0.50;99.90
4052;DHT22;2040;50.924;11.604;2024-03-08T08:07:15;-0.40;99.90
4052;DHT22;2040;50.924;11.604;2024-03-08T08:09:41;-0.50;99.90
4052;DHT22;2040;50.924;11.604;2024-03-08T08:12:08;-0.10;99.90
4052;DHT22;2040;50.924;11.604;2024-03-08T08:14:37;0.00;99.90
4052;DHT22;2040;50.924;11.604;2024-03-08T08:17:03;0.10;99.90
4052;DHT22;2040;50.924;11.604;2024-03-08T08:19:30;0.10;99.90
4052;DHT22;2040;50.924;11.604;2024-03-08T08:21:57;0.20;99.90
4052;DHT22;2040;50.924;11.604;2024-03-08T08:24:23;0.30;99.90
4052;DHT22;2040;50.924;11.604;2024-03-08T08:26:48;0.40;99.90
4052;DHT22;2040;50.924;11.604;2024-03-08T08:29:14;0.50;99.90
4052;DHT22;2040;50.924;11.604;2024-03-08T08:31:40;0.60;99.90
4052;DHT22;2040;50.924;11.604;2024-03-08T08:34:05;0.80;99.90
4052;DHT22;2040;50.924;11.604;2024-03-08T08:36:32;0.90;99.90
4052;DHT22;2040;50.924;11.604;2024-03-08T08:38:57;1.00;99.90
4052;DHT22;2040;50.924;11.604;2024-03-08T08:41:24;1.10;99.90
4052;DHT22;2040;50.924;11.604;2024-03-08T08:43:50;1.30;99.90
4052;DHT22;2040;50.924;11.604;2024-03-08T08:46:19;1.30;99.90
4052;DHT22;2040;50.924;11.604;2024-03-08T08:48:45;1.50;99.90
4052;DHT22;2040;50.924;11.604;2024-03-08T08:51:11;1.60;99.90
4052;DHT22;2040;50.924;11.604;2024-03-08T08:53:41;1.80;99.90
4052;DHT22;2040;50.924;11.604;2024-03-08T08:56:12;1.90;99.90
4052;DHT22;2040;50.924;11.604;2024-03-08T08:58:44;2.00;99.90
4052;DHT22;2040;50.924;11.604;2024-03-08T09:01:10;2.20;99.90
4052;DHT22;2040;50.924;11.604;2024-03-08T09:03:37;2.20;99.90
4052;DHT22;2040;50.924;11.604;2024-03-08T09:06:04;2.50;99.90
4052;DHT22;2040;50.924;11.604;2024-03-08T09:08:30;2.70;99.90
4052;DHT22;2040;50.924;11.604;2024-03-08T09:10:56;2.90;99.90
4052;DHT22;2040;50.924;11.604;2024-03-08T09:13:21;2.90;99.90
4052;DHT22;2040;50.924;11.604;2024-03-08T09:15:47;3.10;99.90
4052;DHT22;2040;50.924;11.604;2024-03-08T09:18:12;3.20;99.90
4052;DHT22;2040;50.924;11.604;2024-03-08T09:20:38;3.20;99.90
4052;DHT22;2040;50.924;11.604;2024-03-08T09:23:03;3.30;99.90
4052;DHT22;2040;50.924;11.604;2024-03-08T09:25:29;3.60;99.90
4052;DHT22;2040;50.924;11.604;2024-03-08T09:27:55;3.70;99.90
4052;DHT22;2040;50.924;11.604;2024-03-08T09:30:21;3.80;99.90
4052;DHT22;2040;50.924;11.604;2024-03-08T09:32:47;3.70;99.90
4052;DHT22;2040;50.924;11.604;2024-03-08T09:35:12;3.70;99.90
4052;DHT22;2040;50.924;11.604;2024-03-08T09:37:38;4.00;99.90
4052;DHT22;2040;50.924;11.604;2024-03-08T09:40:04;4.10;99.90
4052;DHT22;2040;50.924;11.604;2024-03-08T09:42:35;4.30;99.90
4052;DHT22;2040;50.924;11.604;2024-03-08T09:45:10;4.60;99.90
4052;DHT22;2040;50.924;11.604;2024-03-08T09:47:39;4.80;99.90
4052;DHT22;2040;50.924;11.604;2024-03-08T09:50:07;4.80;99.90
4052;DHT22;2040;50.924;11.604;2024-03-08T09:52:46;5.00;99.90
4052;DHT22;2040;50.924;11.604;2024-03-08T09:55:12;5.40;99.90
4052;DHT22;2040;50.924;11.604;2024-03-08T09:57:38;5.50;99.90
4052;DHT22;2040;50.924;11.604;2024-03-08T10:00:05;5.50;99.90
4052;DHT22;2040;50.924;11.604;2024-03-08T10:02:47;5.70;99.90
4052;DHT22;2040;50.924;11.604;2024-03-08T10:05:13;5.90;99.90
4052;DHT22;2040;50.924;11.604;2024-03-08T10:07:39;6.00;99.90
4052;DHT22;2040;50.924;11.604;2024-03-08T10:10:05;6.20;99.90
4052;DHT22;2040;50.924;11.604;2024-03-08T10:12:31;6.40;99.90
4052;DHT22;2040;50.924;11.604;2024-03-08T10:14:58;6.70;99.90
4052;DHT22;2040;50.924;11.604;2024-03-08T10:17:24;6.70;99.90
4052;DHT22;2040;50.924;11.604;2024-03-08T10:19:51;6.80;99.90
4052;DHT22;2040;50.924;11.604;2024-03-08T10:22:18;6.90;99.90
4052;DHT22;2040;50.924;11.604;2024-03-08T10:24:49;7.00;99.90
4052;DHT22;2040;50.924;11.604;2024-03-08T10:27:16;7.10;99.90
4052;DHT22;2040;50.924;11.604;2024-03-08T10:29:42;6.90;99.90
4052;DHT22;2040;50.924;11.604;2024-03-08T10:32:10;7.00;99.90
4052;DHT22;2040;50.924;11.604;2024-03-08T10:34:35;7.10;99.90
4052;DHT22;2040;50.924;11.604;2024-03-08T10:37:03;7.20;99.90
4052;DHT22;2040;50.924;11.604;2024-03-08T10:39:34;7.10;99.90
4052;DHT22;2040;50.924;11.604;2024-03-08T10:42:03;7.20;99.90
4052;DHT22;2040;50.924;11.604;2024-03-08T10:47:15;7.60;99.90
4052;DHT22;2040;50.924;11.604;2024-03-08T10:52:16;7.90;99.90
4052;DHT22;2040;50.924;11.604;2024-03-08T10:54:45;7.80;99.90
4052;DHT22;2040;50.924;11.604;2024-03-08T10:57:12;7.50;99.90
4052;DHT22;2040;50.924;11.604;2024-03-08T10:59:38;7.60;99.90
4052;DHT22;2040;50.924;11.604;2024-03-08T11:02:04;7.90;99.90
4052;DHT22;2040;50.924;11.604;2024-03-08T11:04:31;8.00;99.90
4052;DHT22;2040;50.924;11.604;2024-03-08T11:07:02;8.10;99.90
4052;DHT22;2040;50.924;11.604;2024-03-08T11:09:39;8.20;99.90
4052;DHT22;2040;50.924;11.604;2024-03-08T11:12:24;8.20;99.90
4052;DHT22;2040;50.924;11.604;2024-03-08T11:15:00;8.00;99.90
4052;DHT22;2040;50.924;11.604;2024-03-08T11:20:11;8.00;99.90
4052;DHT22;2040;50.924;11.604;2024-03-08T11:23:00;8.30;99.90
4052;DHT22;2040;50.924;11.604;2024-03-08T11:25:41;8.40;99.90
4052;DHT22;2040;50.924;11.604;2024-03-08T11:28:20;8.30;99.90
4052;DHT22;2040;50.924;11.604;2024-03-08T11:33:35;8.60;99.90
4052;DHT22;2040;50.924;11.604;2024-03-08T11:38:40;8.80;99.90
4052;DHT22;2040;50.924;11.604;2024-03-08T11:41:06;8.70;99.90
4052;DHT22;2040;50.924;11.604;2024-03-08T11:43:33;8.80;99.90
4052;DHT22;2040;50.924;11.604;2024-03-08T11:46:08;8.60;99.90
4052;DHT22;2040;50.924;11.604;2024-03-08T11:48:34;8.70;99.90
4052;DHT22;2040;50.924;11.604;2024-03-08T11:51:01;8.90;99.90
4052;DHT22;2040;50.924;11.604;2024-03-08T11:53:27;8.80;99.90
4052;DHT22;2040;50.924;11.604;2024-03-08T11:55:52;9.00;99.90
4052;DHT22;2040;50.924;11.604;2024-03-08T11:58:18;9.00;99.90
4052;DHT22;2040;50.924;11.604;2024-03-08T12:00:44;9.20;99.90
4052;DHT22;2040;50.924;11.604;2024-03-08T12:03:11;8.90;99.90
4052;DHT22;2040;50.924;11.604;2024-03-08T12:05:37;9.20;99.90
4052;DHT22;2040;50.924;11.604;2024-03-08T12:08:04;9.20;99.90
4052;DHT22;2040;50.924;11.604;2024-03-08T12:10:33;9.30;99.90
4052;DHT22;2040;50.924;11.604;2024-03-08T12:13:00;9.30;99.90
4052;DHT22;2040;50.924;11.604;2024-03-08T12:15:26;9.30;99.90
4052;DHT22;2040;50.924;11.604;2024-03-08T12:17:53;9.20;99.90
4052;DHT22;2040;50.924;11.604;2024-03-08T12:20:22;9.20;99.90
4052;DHT22;2040;50.924;11.604;2024-03-08T12:22:49;9.30;99.90
4052;DHT22;2040;50.924;11.604;2024-03-08T12:25:15;9.60;99.90
4052;DHT22;2040;50.924;11.604;2024-03-08T12:27:42;10.00;99.90
4052;DHT22;2040;50.924;11.604;2024-03-08T12:32:57;10.10;99.90
4052;DHT22;2040;50.924;11.604;2024-03-08T12:35:27;9.80;99.90
4052;DHT22;2040;50.924;11.604;2024-03-08T12:37:57;9.80;99.90
4052;DHT22;2040;50.924;11.604;2024-03-08T12:40:28;10.00;99.90
4052;DHT22;2040;50.924;11.604;2024-03-08T12:42:55;9.90;99.90
4052;DHT22;2040;50.924;11.604;2024-03-08T12:45:22;9.70;99.90
4052;DHT22;2040;50.924;11.604;2024-03-08T12:47:52;10.20;99.90
4052;DHT22;2040;50.924;11.604;2024-03-08T12:50:19;10.60;99.90
4052;DHT22;2040;50.924;11.604;2024-03-08T12:52:44;10.80;99.90
4052;DHT22;2040;50.924;11.604;2024-03-08T12:55:10;10.70;99.90
4052;DHT22;2040;50.924;11.604;2024-03-08T12:57:36;10.90;99.90
4052;DHT22;2040;50.924;11.604;2024-03-08T13:00:03;11.00;99.90
4052;DHT22;2040;50.924;11.604;2024-03-08T13:02:29;11.10;99.90
4052;DHT22;2040;50.924;11.604;2024-03-08T13:04:56;11.00;99.90
4052;DHT22;2040;50.924;11.604;2024-03-08T13:07:26;10.60;99.90
4052;DHT22;2040;50.924;11.604;2024-03-08T13:09:52;10.40;99.90
4052;DHT22;2040;50.924;11.604;2024-03-08T13:12:19;10.60;99.90
4052;DHT22;2040;50.924;11.604;2024-03-08T13:14:46;11.10;99.90
4052;DHT22;2040;50.924;11.604;2024-03-08T13:17:12;11.00;99.90
4052;DHT22;2040;50.924;11.604;2024-03-08T13:19:38;10.70;99.90
4052;DHT22;2040;50.924;11.604;2024-03-08T13:22:04;10.70;99.90
4052;DHT22;2040;50.924;11.604;2024-03-08T13:24:30;10.90;99.90
4052;DHT22;2040;50.924;11.604;2024-03-08T13:26:56;10.70;99.90
4052;DHT22;2040;50.924;11.604;2024-03-08T13:29:22;10.80;99.90
4052;DHT22;2040;50.924;11.604;2024-03-08T13:31:48;10.60;99.90
4052;DHT22;2040;50.924;11.604;2024-03-08T13:34:17;10.60;99.90
4052;DHT22;2040;50.924;11.604;2024-03-08T13:36:43;10.90;99.90
4052;DHT22;2040;50.924;11.604;2024-03-08T13:39:09;11.10;99.90
4052;DHT22;2040;50.924;11.604;2024-03-08T13:41:41;11.30;99.90
4052;DHT22;2040;50.924;11.604;2024-03-08T13:44:07;11.40;99.90
4052;DHT22;2040;50.924;11.604;2024-03-08T13:46:33;11.40;99.90
4052;DHT22;2040;50.924;11.604;2024-03-08T13:49:04;11.40;99.90
4052;DHT22;2040;50.924;11.604;2024-03-08T13:51:35;11.40;99.90
4052;DHT22;2040;50.924;11.604;2024-03-08T13:54:01;11.40;99.90
4052;DHT22;2040;50.924;11.604;2024-03-08T13:56:27;11.40;99.90
4052;DHT22;2040;50.924;11.604;2024-03-08T13:58:56;11.20;99.90
4052;DHT22;2040;50.924;11.604;2024-03-08T14:01:22;10.80;99.90
4052;DHT22;2040;50.924;11.604;2024-03-08T14:03:48;10.60;99.90
4052;DHT22;2040;50.924;11.604;2024-03-08T14:06:14;10.50;99.90
4052;DHT22;2040;50.924;11.604;2024-03-08T14:08:39;10.70;99.90
4052;DHT22;2040;50.924;11.604;2024-03-08T14:11:06;10.50;99.90
4052;DHT22;2040;50.924;11.604;2024-03-08T14:13:44;10.30;99.90
4052;DHT22;2040;50.924;11.604;2024-03-08T14:16:11;10.30;99.90
4052;DHT22;2040;50.924;11.604;2024-03-08T14:18:37;10.80;99.90
4052;DHT22;2040;50.924;11.604;2024-03-08T14:21:03;10.90;99.90
4052;DHT22;2040;50.924;11.604;2024-03-08T14:23:29;11.30;99.90
4052;DHT22;2040;50.924;11.604;2024-03-08T14:25:55;11.60;99.90
4052;DHT22;2040;50.924;11.604;2024-03-08T14:28:20;11.50;99.90
4052;DHT22;2040;50.924;11.604;2024-03-08T14:30:48;11.50;99.90
4052;DHT22;2040;50.924;11.604;2024-03-08T14:33:14;11.40;99.90
4052;DHT22;2040;50.924;11.604;2024-03-08T14:35:40;11.50;99.90
4052;DHT22;2040;50.924;11.604;2024-03-08T14:38:06;11.60;99.90
4052;DHT22;2040;50.924;11.604;2024-03-08T14:40:36;11.70;99.90
4052;DHT22;2040;50.924;11.604;2024-03-08T14:43:02;11.70;99.90
4052;DHT22;2040;50.924;11.604;2024-03-08T14:45:29;11.80;99.90
4052;DHT22;2040;50.924;11.604;2024-03-08T14:47:56;12.20;99.90
4052;DHT22;2040;50.924;11.604;2024-03-08T14:50:24;11.80;99.90
4052;DHT22;2040;50.924;11.604;2024-03-08T14:52:50;11.80;99.90
4052;DHT22;2040;50.924;11.604;2024-03-08T14:55:19;11.60;99.90
4052;DHT22;2040;50.924;11.604;2024-03-08T14:57:48;11.50;99.90
4052;DHT22;2040;50.924;11.604;2024-03-08T15:00:16;11.60;99.90
4052;DHT22;2040;50.924;11.604;2024-03-08T15:02:50;11.60;99.90
4052;DHT22;2040;50.924;11.604;2024-03-08T15:05:19;11.70;99.90
4052;DHT22;2040;50.924;11.604;2024-03-08T15:07:46;11.80;99.90
4052;DHT22;2040;50.924;11.604;2024-03-08T15:10:12;11.60;99.90
4052;DHT22;2040;50.924;11.604;2024-03-08T15:12:41;11.80;99.90
4052;DHT22;2040;50.924;11.604;2024-03-08T15:15:08;11.90;99.90
4052;DHT22;2040;50.924;11.604;2024-03-08T15:17:34;11.90;99.90
4052;DHT22;2040;50.924;11.604;2024-03-08T15:20:01;11.70;99.90
4052;DHT22;2040;50.924;11.604;2024-03-08T15:22:26;11.40;99.90
4052;DHT22;2040;50.924;11.604;2024-03-08T15:24:52;11.50;99.90
4052;DHT22;2040;50.924;11.604;2024-03-08T15:27:18;11.40;99.90
4052;DHT22;2040;50.924;11.604;2024-03-08T15:29:44;11.60;99.90
4052;DHT22;2040;50.924;11.604;2024-03-08T15:32:14;11.60;99.90
4052;DHT22;2040;50.924;11.604;2024-03-08T15:34:45;11.60;99.90
4052;DHT22;2040;50.924;11.604;2024-03-08T15:37:11;10.90;99.90
4052;DHT22;2040;50.924;11.604;2024-03-08T15:39:42;11.00;99.90
4052;DHT22;2040;50.924;11.604;2024-03-08T15:42:08;10.80;99.90
4052;DHT22;2040;50.924;11.604;2024-03-08T15:44:37;10.70;99.90
4052;DHT22;2040;50.924;11.604;2024-03-08T15:47:05;11.00;99.90
4052;DHT22;2040;50.924;11.604;2024-03-08T15:49:36;11.10;99.90
4052;DHT22;2040;50.924;11.604;2024-03-08T15:52:01;11.10;99.90
4052;DHT22;2040;50.924;11.604;2024-03-08T15:54:27;11.30;99.90
4052;DHT22;2040;50.924;11.604;2024-03-08T15:56:53;11.20;99.90
4052;DHT22;2040;50.924;11.604;2024-03-08T15:59:18;11.00;99.90
4052;DHT22;2040;50.924;11.604;2024-03-08T16:01:44;10.90;99.90
4052;DHT22;2040;50.924;11.604;2024-03-08T16:04:16;11.00;99.90
4052;DHT22;2040;50.924;11.604;2024-03-08T16:06:42;10.90;99.90
4052;DHT22;2040;50.924;11.604;2024-03-08T16:09:09;10.60;99.90